^^
Saratoga-Weather Station Historical Data
Daily Summary for July 1, 2020 Units:  Metric    English   Both
Daily Weekly Monthly Yearly Custom
  High: Low: Average:
Temperature: 15.7 °C 8.8 °C 12.1 °C
Dew Point: 13.5 °C 8 °C 11.1 °C
Humidity: 97% 82% 94%
Wind Speed: 9.7km/h 0km/h 1.1km/h
Wind Gust: 16.1km/h - -
Wind- - SE
Pressure: 1009.1 hPa 1000.3 hPa -
Precipitation: 5.6 mm    
Historical Graphs
 
 
Tabular Data for July 1, 2020
Time Temperature Dew Point Pressure Wind Wind Speed Wind Gust Humidity Rainfall Rate (Hourly) solar
00:03 11.9 °C 11.3 °C 1009.1 hPa Calm     96% 0.0 mm 0 W/m2
00:08 12.1 °C 11.5 °C 1009.1 hPa Calm     96% 0.0 mm 0 W/m2
00:13 12.2 °C 11.6 °C 1009.1 hPa Calm     96% 0.0 mm 0 W/m2
00:18 12.2 °C 11.6 °C 1009.1 hPa Calm     96% 0.0 mm 0 W/m2
00:23 12.2 °C 11.6 °C 1008.8 hPa Calm     96% 0.0 mm 0 W/m2
00:28 12.2 °C 11.6 °C 1008.8 hPa Calm     96% 0.0 mm 0 W/m2
00:33 12.3 °C 11.7 °C 1008.5 hPa Calm     96% 0.0 mm 0 W/m2
00:38 12.2 °C 11.6 °C 1008.5 hPa Calm     96% 0.0 mm 0 W/m2
00:43 12.2 °C 11.6 °C 1008.5 hPa Calm     96% 0.0 mm 0 W/m2
00:48 12.1 °C 11.5 °C 1008.5 hPa Calm     96% 0.0 mm 0 W/m2
00:53 12 °C 11.4 °C 1008.5 hPa Calm     96% 0.0 mm 0 W/m2
00:58 11.9 °C 11.3 °C 1008.5 hPa Calm     96% 0.0 mm 0 W/m2
01:03 11.8 °C 11.2 °C 1008.5 hPa Calm     96% 0.0 mm 0 W/m2
01:08 11.8 °C 11.2 °C 1008.5 hPa Calm     96% 0.0 mm 0 W/m2
01:13 11.7 °C 11.1 °C 1008.5 hPa Calm     96% 0.0 mm 0 W/m2
01:18 11.7 °C 11.1 °C 1008.1 hPa Calm     96% 0.0 mm 0 W/m2
01:23 11.6 °C 11 °C 1008.1 hPa Calm     96% 0.0 mm 0 W/m2
01:28 11.6 °C 11 °C 1008.1 hPa Calm     96% 0.0 mm 0 W/m2
01:33 11.5 °C 10.9 °C 1008.1 hPa Calm     96% 0.0 mm 0 W/m2
01:38 11.4 °C 10.8 °C 1008.1 hPa Calm     96% 0.0 mm 0 W/m2
01:43 11.4 °C 10.8 °C 1008.1 hPa Calm     96% 0.0 mm 0 W/m2
01:48 11.4 °C 10.8 °C 1008.1 hPa Calm     96% 0.0 mm 0 W/m2
01:53 11.4 °C 10.8 °C 1007.8 hPa Calm     96% 0.0 mm 0 W/m2
01:58 11.4 °C 10.8 °C 1007.8 hPa Calm     96% 0.0 mm 0 W/m2
02:03 11.4 °C 10.8 °C 1007.8 hPa Calm     96% 0.0 mm 0 W/m2
02:08 11.4 °C 10.8 °C 1007.8 hPa Calm     96% 0.0 mm 0 W/m2
02:13 11.5 °C 11 °C 1007.8 hPa Calm     97% 0.0 mm 0 W/m2
02:18 11.5 °C 11 °C 1007.8 hPa Calm     97% 0.0 mm 0 W/m2
02:23 11.5 °C 11 °C 1007.8 hPa Calm     97% 0.0 mm 0 W/m2
02:28 11.4 °C 10.8 °C 1007.5 hPa Calm     96% 0.0 mm 0 W/m2
02:33 11.3 °C 10.7 °C 1007.5 hPa Calm     96% 0.0 mm 0 W/m2
02:38 11.3 °C 10.7 °C 1007.5 hPa Calm     96% 0.0 mm 0 W/m2
02:43 11.2 °C 10.6 °C 1007.5 hPa Calm     96% 0.0 mm 0 W/m2
02:48 11.2 °C 10.6 °C 1007.1 hPa Calm     96% 0.0 mm 0 W/m2
02:53 11.1 °C 10.5 °C 1007.1 hPa Calm     96% 0.0 mm 0 W/m2
02:58 11.1 °C 10.5 °C 1007.1 hPa Calm     96% 0.0 mm 0 W/m2
03:03 11.1 °C 10.5 °C 1007.1 hPa Calm     96% 0.0 mm 0 W/m2
03:08 11.1 °C 10.6 °C 1006.8 hPa Calm     97% 0.0 mm 0 W/m2
03:13 11.1 °C 10.6 °C 1006.8 hPa Calm     97% 0.0 mm 0 W/m2
03:18 11.1 °C 10.6 °C 1006.8 hPa Calm     97% 0.0 mm 0 W/m2
03:23 11.1 °C 10.6 °C 1006.8 hPa Calm     97% 0.0 mm 0 W/m2
03:28 11 °C 10.4 °C 1006.4 hPa Calm     96% 0.0 mm 0 W/m2
03:33 10.9 °C 10.3 °C 1006.4 hPa Calm     96% 0.0 mm 0 W/m2
03:38 10.8 °C 10.2 °C 1006.4 hPa Calm     96% 0.0 mm 0 W/m2
03:43 10.7 °C 10.1 °C 1006.4 hPa Calm     96% 0.0 mm 0 W/m2
03:48 10.7 °C 10.1 °C 1006.4 hPa Calm     96% 0.0 mm 0 W/m2
03:53 10.6 °C 10 °C 1006.4 hPa Calm     96% 0.0 mm 0 W/m2
03:58 10.6 °C 10 °C 1006.1 hPa Calm     96% 0.0 mm 0 W/m2
04:03 10.5 °C 9.9 °C 1006.1 hPa Calm     96% 0.0 mm 0 W/m2
04:08 10.5 °C 9.9 °C 1006.1 hPa Calm     96% 0.0 mm 0 W/m2
04:13 10.5 °C 9.9 °C 1006.1 hPa Calm     96% 0.0 mm 0 W/m2
04:18 10.5 °C 9.9 °C 1005.8 hPa Calm     96% 0.0 mm 0 W/m2
04:23 10.6 °C 10.1 °C 1005.8 hPa Calm     97% 0.0 mm 0 W/m2
04:28 10.6 °C 10.1 °C 1005.8 hPa Calm     97% 0.0 mm 0 W/m2
04:33 10.7 °C 10.2 °C 1005.8 hPa Calm     97% 0.0 mm 0 W/m2
04:38 10.7 °C 10.2 °C 1005.4 hPa Calm     97% 0.0 mm 0 W/m2
04:43 10.7 °C 10.2 °C 1005.4 hPa Calm     97% 0.0 mm 0 W/m2
04:48 10.7 °C 10.2 °C 1005.4 hPa Calm     97% 0.0 mm 0 W/m2
04:53 10.7 °C 10.2 °C 1005.4 hPa Calm     97% 0.0 mm 0 W/m2
04:58 10.7 °C 10.2 °C 1005.1 hPa Calm     97% 0.0 mm 0 W/m2
05:03 10.7 °C 10.2 °C 1005.1 hPa Calm     97% 0.0 mm 0 W/m2
05:08 10.7 °C 10.2 °C 1005.1 hPa Calm     97% 0.0 mm 0 W/m2
05:13 10.7 °C 10.2 °C 1005.1 hPa Calm     97% 0.0 mm 0 W/m2
05:18 10.7 °C 10.2 °C 1005.1 hPa Calm     97% 0.0 mm 0 W/m2
05:23 10.7 °C 10.2 °C 1005.1 hPa Calm     97% 0.0 mm 0 W/m2
05:28 10.7 °C 10.2 °C 1004.7 hPa Calm     97% 0.0 mm 0 W/m2
05:33 10.7 °C 10.2 °C 1004.7 hPa Calm     97% 0.0 mm 0 W/m2
05:38 10.7 °C 10.2 °C 1004.7 hPa Calm     97% 0.0 mm 0 W/m2
05:43 10.7 °C 10.2 °C 1004.7 hPa Calm     97% 0.0 mm 0 W/m2
05:48 10.7 °C 10.2 °C 1004.7 hPa Calm     97% 0.0 mm 0 W/m2
05:53 10.7 °C 10.2 °C 1004.7 hPa Calm     97% 0.0 mm 0 W/m2
05:58 10.6 °C 10.1 °C 1004.7 hPa Calm     97% 0.0 mm 0 W/m2
06:03 10.6 °C 10.1 °C 1004.4 hPa Calm     97% 0.0 mm 0 W/m2
06:08 10.6 °C 10.1 °C 1004.4 hPa Calm     97% 0.0 mm 0 W/m2
06:13 10.6 °C 10.1 °C 1004.4 hPa Calm     97% 0.0 mm 0 W/m2
06:18 10.6 °C 10.1 °C 1004.4 hPa Calm     97% 0.0 mm 0 W/m2
06:23 10.5 °C 10 °C 1004.4 hPa Calm     97% 0.0 mm 0 W/m2
06:28 10.5 °C 10 °C 1004.1 hPa Calm     97% 0.0 mm 0 W/m2
06:33 10.4 °C 9.9 °C 1004.1 hPa Calm     97% 0.0 mm 0 W/m2
06:38 10.4 °C 9.9 °C 1004.1 hPa Calm     97% 0.0 mm 0 W/m2
06:43 10.4 °C 9.9 °C 1004.1 hPa Calm     97% 0.0 mm 0 W/m2
06:48 10.4 °C 9.9 °C 1004.1 hPa Calm     97% 0.0 mm 0 W/m2
06:53 10.4 °C 9.9 °C 1004.1 hPa Calm     97% 0.0 mm 0 W/m2
06:58 10.3 °C 9.8 °C 1004.1 hPa Calm     97% 0.0 mm 0 W/m2
07:03 10.3 °C 9.8 °C 1003.7 hPa Calm     97% 0.0 mm 0 W/m2
07:08 10.3 °C 9.8 °C 1003.7 hPa Calm     97% 0.0 mm 0 W/m2
07:13 10.3 °C 9.8 °C 1003.7 hPa Calm     97% 0.0 mm 0 W/m2
07:18 10.3 °C 9.8 °C 1003.7 hPa Calm     97% 0.0 mm 0 W/m2
07:23 10.3 °C 9.8 °C 1003.7 hPa Calm     97% 0.0 mm 0 W/m2
07:28 10.3 °C 9.8 °C 1003.7 hPa Calm     97% 0.0 mm 0 W/m2
07:33 10.3 °C 9.8 °C 1003.7 hPa Calm     97% 0.0 mm 7 W/m2
07:38 10.4 °C 9.9 °C 1003.7 hPa Calm     97% 0.0 mm 0 W/m2
07:43 10.4 °C 9.9 °C 1003.4 hPa Calm     97% 0.0 mm 0 W/m2
07:48 10.4 °C 9.9 °C 1003.7 hPa Calm     97% 0.0 mm 0 W/m2
07:53 10.4 °C 9.9 °C 1003.4 hPa Calm     97% 0.0 mm 5 W/m2
07:58 10.4 °C 9.9 °C 1003.4 hPa Calm     97% 0.0 mm 7 W/m2
08:03 10.4 °C 9.9 °C 1003.4 hPa Calm     97% 0.0 mm 9 W/m2
08:08 10.6 °C 10.1 °C 1003.4 hPa Calm     97% 0.0 mm 12 W/m2
08:13 10.6 °C 10.1 °C 1003.4 hPa Calm     97% 0.0 mm 21 W/m2
08:18 10.7 °C 10.2 °C 1003.4 hPa Calm     97% 0.0 mm 23 W/m2
08:23 10.7 °C 10.2 °C 1003.4 hPa Calm     97% 0.0 mm 25 W/m2
08:28 10.8 °C 10.3 °C 1003.0 hPa Calm     97% 0.0 mm 30 W/m2
08:33 10.8 °C 10.3 °C 1003.0 hPa Calm   3.2 km/h 97% 0.0 mm 28 W/m2
08:38 10.9 °C 10.4 °C 1003.0 hPa ESE 3.2 km/h 4.8 km/h 97% 0.0 mm 28 W/m2
08:43 11 °C 10.5 °C 1003.0 hPa Calm   3.2 km/h 97% 0.0 mm 33 W/m2
08:48 11 °C 10.5 °C 1003.0 hPa East 1.4 km/h 4.8 km/h 97% 0.0 mm 35 W/m2
08:53 11.1 °C 10.6 °C 1003.0 hPa Calm     97% 0.0 mm 42 W/m2
08:58 11.1 °C 10.6 °C 1002.7 hPa Calm     97% 0.0 mm 49 W/m2
09:03 11.1 °C 10.6 °C 1002.7 hPa Calm     97% 0.0 mm 44 W/m2
09:08 11.2 °C 10.7 °C 1002.7 hPa Calm   1.6 km/h 97% 0.0 mm 42 W/m2
09:13 11.2 °C 10.7 °C 1002.7 hPa Calm   3.2 km/h 97% 0.0 mm 37 W/m2
09:18 11.3 °C 10.8 °C 1002.7 hPa Calm   3.2 km/h 97% 0.0 mm 39 W/m2
09:23 11.3 °C 10.8 °C 1002.7 hPa Calm     97% 0.0 mm 37 W/m2
09:28 11.3 °C 10.8 °C 1002.7 hPa Calm   1.6 km/h 97% 0.0 mm 49 W/m2
09:33 11.3 °C 10.8 °C 1002.7 hPa NE 1.4 km/h 1.6 km/h 97% 0.0 mm 49 W/m2
09:38 11.4 °C 10.9 °C 1002.7 hPa NE 1.4 km/h 1.6 km/h 97% 0.0 mm 49 W/m2
09:44 11.4 °C 10.9 °C 1002.7 hPa NE 3.2 km/h 3.2 km/h 97% 0.0 mm 65 W/m2
09:49 11.5 °C 11 °C 1002.7 hPa Calm   1.6 km/h 97% 0.0 mm 83 W/m2
09:54 11.6 °C 11.1 °C 1002.4 hPa ENE 1.4 km/h 4.8 km/h 97% 0.0 mm 77 W/m2
09:59 11.7 °C 11.2 °C 1002.7 hPa Calm     97% 0.0 mm 84 W/m2
10:04 11.8 °C 11.3 °C 1002.4 hPa ENE 3.2 km/h 4.8 km/h 97% 0.0 mm 123 W/m2
10:09 11.9 °C 11.4 °C 1002.4 hPa Calm   1.6 km/h 97% 0.0 mm 127 W/m2
10:14 12.1 °C 11.6 °C 1002.4 hPa NE 3.2 km/h 4.8 km/h 97% 0.0 mm 141 W/m2
10:19 12.2 °C 11.7 °C 1002.4 hPa NE 1.4 km/h 1.6 km/h 97% 0.0 mm 137 W/m2
10:24 12.4 °C 11.9 °C 1002.4 hPa East 4.7 km/h 8 km/h 97% 0.0 mm 121 W/m2
10:29 12.6 °C 12 °C 1002.4 hPa NE 3.2 km/h 4.8 km/h 96% 0.0 mm 132 W/m2
10:34 12.7 °C 12.1 °C 1002.0 hPa ESE 3.2 km/h 4.8 km/h 96% 0.0 mm 123 W/m2
10:39 12.8 °C 12 °C 1002.0 hPa NE 3.2 km/h 6.4 km/h 95% 0.0 mm 137 W/m2
10:44 13.1 °C 12.2 °C 1002.0 hPa East 1.4 km/h 4.8 km/h 94% 0.0 mm 155 W/m2
10:49 13.2 °C 12.1 °C 1002.0 hPa East 4.7 km/h 8 km/h 93% 0.0 mm 183 W/m2
10:54 13.4 °C 12.1 °C 1002.4 hPa ENE 3.2 km/h 9.7 km/h 92% 0.0 mm 123 W/m2
10:59 13.6 °C 12.3 °C 1002.0 hPa ENE 7.9 km/h 9.7 km/h 92% 0.0 mm 109 W/m2
11:04 13.6 °C 12.2 °C 1002.0 hPa SE 1.4 km/h 6.4 km/h 91% 0.0 mm 76 W/m2
11:09 13.6 °C 12.2 °C 1002.0 hPa ENE 3.2 km/h 9.7 km/h 91% 0.0 mm 51 W/m2
11:14 13.6 °C 12.2 °C 1002.4 hPa ENE 1.4 km/h 4.8 km/h 91% 0.0 mm 81 W/m2
11:19 13.6 °C 12 °C 1002.0 hPa ENE 4.7 km/h 9.7 km/h 90% 0.0 mm 47 W/m2
11:24 13.6 °C 12 °C 1002.0 hPa ENE 3.2 km/h 6.4 km/h 90% 0.0 mm 53 W/m2
11:29 13.6 °C 12 °C 1002.0 hPa ENE 6.4 km/h 8 km/h 90% 0.0 mm 60 W/m2
11:34 13.7 °C 12.1 °C 1002.0 hPa ENE 1.4 km/h 6.4 km/h 90% 0.0 mm 53 W/m2
11:39 13.7 °C 12.1 °C 1002.4 hPa East 3.2 km/h 6.4 km/h 90% 0.0 mm 63 W/m2
11:44 13.8 °C 12.2 °C 1002.4 hPa NE 3.2 km/h 4.8 km/h 90% 0.0 mm 77 W/m2
11:49 13.8 °C 12.2 °C 1002.0 hPa Calm   4.8 km/h 90% 0.0 mm 63 W/m2
11:54 13.8 °C 12.4 °C 1002.0 hPa Calm   1.6 km/h 91% 0.2 mm 49 W/m2
11:59 13.8 °C 12.4 °C 1002.0 hPa Calm   4.8 km/h 91% 0.5 mm 47 W/m2
12:04 13.8 °C 12.5 °C 1002.0 hPa Calm     92% 0.8 mm 47 W/m2
12:09 13.8 °C 12.5 °C 1002.0 hPa Calm   1.6 km/h 92% 1.0 mm 53 W/m2
12:14 13.7 °C 12.4 °C 1002.0 hPa NNE 1.4 km/h 3.2 km/h 92% 1.3 mm 49 W/m2
12:19 13.7 °C 12.6 °C 1002.0 hPa East 1.4 km/h 1.6 km/h 93% 1.5 mm 46 W/m2
12:24 13.7 °C 12.6 °C 1001.7 hPa ENE 4.7 km/h 6.4 km/h 93% 1.8 mm 46 W/m2
12:29 13.6 °C 12.5 °C 1001.7 hPa NE 4.7 km/h 4.8 km/h 93% 2.0 mm 40 W/m2
12:34 13.6 °C 12.5 °C 1001.7 hPa ESE 1.4 km/h 6.4 km/h 93% 2.3 mm 49 W/m2
12:39 13.5 °C 12.4 °C 1001.7 hPa ENE 4.7 km/h 4.8 km/h 93% 2.8 mm 56 W/m2
12:44 13.5 °C 12.6 °C 1001.4 hPa ENE 6.4 km/h 6.4 km/h 94% 3.0 mm 67 W/m2
12:49 13.4 °C 12.5 °C 1001.4 hPa East 6.4 km/h 9.7 km/h 94% 2.8 mm 54 W/m2
12:54 13.3 °C 12.4 °C 1001.4 hPa NE 1.4 km/h 8 km/h 94% 3.0 mm 44 W/m2
12:59 13.4 °C 12.5 °C 1001.4 hPa East 3.2 km/h 3.2 km/h 94% 2.8 mm 49 W/m2
13:04 13.4 °C 12.5 °C 1001.7 hPa East 1.4 km/h 4.8 km/h 94% 2.5 mm 63 W/m2
13:09 13.4 °C 12.5 °C 1001.4 hPa Calm   3.2 km/h 94% 2.3 mm 76 W/m2
13:14 13.4 °C 12.6 °C 1001.4 hPa East 3.2 km/h 6.4 km/h 95% 2.3 mm 116 W/m2
13:19 13.6 °C 12.8 °C 1001.0 hPa NE 3.2 km/h 4.8 km/h 95% 2.0 mm 125 W/m2
13:25 13.6 °C 12.8 °C 1000.7 hPa NNE 3.2 km/h 12.9 km/h 95% 1.8 mm 105 W/m2
13:30 13.7 °C 12.9 °C 1001.4 hPa ENE 3.2 km/h 8 km/h 95% 1.5 mm 121 W/m2
13:35 13.7 °C 12.9 °C 1001.4 hPa Calm   1.6 km/h 95% 1.3 mm 149 W/m2
13:40 13.8 °C 13 °C 1001.4 hPa WNW 1.4 km/h 6.4 km/h 95% 0.8 mm 128 W/m2
13:45 13.8 °C 13 °C 1001.4 hPa North 3.2 km/h 3.2 km/h 95% 0.5 mm 121 W/m2
13:50 13.9 °C 12.9 °C 1001.4 hPa North 1.4 km/h 6.4 km/h 94% 0.5 mm 97 W/m2
13:55 13.9 °C 12.9 °C 1001.7 hPa Calm   6.4 km/h 94% 0.5 mm 113 W/m2
14:00 14 °C 13 °C 1001.7 hPa NNE 1.4 km/h 4.8 km/h 94% 0.5 mm 58 W/m2
14:05 14.1 °C 13.1 °C 1001.7 hPa NE 3.2 km/h 8 km/h 94% 0.2 mm 102 W/m2
14:10 14.1 °C 13 °C 1001.4 hPa NW 4.7 km/h 9.7 km/h 93% 0.2 mm 146 W/m2
14:15 14.2 °C 13.1 °C 1001.4 hPa Calm   6.4 km/h 93% 0.2 mm 116 W/m2
14:20 14.3 °C 13.2 °C 1001.4 hPa ENE 3.2 km/h 8 km/h 93% 0.0 mm 132 W/m2
14:25 14.3 °C 13.2 °C 1001.4 hPa NNW 4.7 km/h 6.4 km/h 93% 0.0 mm 113 W/m2
14:30 14.3 °C 13 °C 1001.4 hPa NE 3.2 km/h 12.9 km/h 92% 0.0 mm 132 W/m2
14:35 14.4 °C 13.1 °C 1001.4 hPa NE 9.7 km/h 9.7 km/h 92% 0.0 mm 134 W/m2
14:40 14.4 °C 13.1 °C 1001.4 hPa NE 1.4 km/h 6.4 km/h 92% 0.0 mm 118 W/m2
14:45 14.4 °C 13.1 °C 1001.4 hPa NW 3.2 km/h 3.2 km/h 92% 0.0 mm 83 W/m2
14:50 14.4 °C 13.1 °C 1001.4 hPa Calm   3.2 km/h 92% 0.0 mm 49 W/m2
14:55 14.4 °C 13.1 °C 1001.4 hPa East 1.4 km/h 3.2 km/h 92% 0.0 mm 74 W/m2
15:00 14.4 °C 12.9 °C 1001.4 hPa NE 1.4 km/h 3.2 km/h 91% 0.0 mm 58 W/m2
15:05 14.3 °C 13 °C 1001.0 hPa Calm   4.8 km/h 92% 0.0 mm 58 W/m2
15:10 14.3 °C 13 °C 1001.4 hPa NE 4.7 km/h 6.4 km/h 92% 0.2 mm 49 W/m2
15:15 14.2 °C 12.9 °C 1001.4 hPa WNW 4.7 km/h 4.8 km/h 92% 1.0 mm 42 W/m2
15:20 14.1 °C 12.8 °C 1001.4 hPa North 1.4 km/h 8 km/h 92% 1.8 mm 123 W/m2
15:25 14.1 °C 13 °C 1001.4 hPa WNW 4.7 km/h 8 km/h 93% 1.8 mm 158 W/m2
15:30 14.1 °C 13 °C 1001.4 hPa ESE 6.4 km/h 6.4 km/h 93% 2.0 mm 200 W/m2
15:35 14.3 °C 13.2 °C 1001.4 hPa NW 6.4 km/h 9.7 km/h 93% 2.0 mm 431 W/m2
15:40 14.3 °C 13 °C 1001.4 hPa West 9.7 km/h 16.1 km/h 92% 2.0 mm 244 W/m2
15:45 14.5 °C 13 °C 1001.4 hPa SW 3.2 km/h 14.5 km/h 91% 2.0 mm 564 W/m2
15:50 14.6 °C 13.1 °C 1001.4 hPa NW 1.4 km/h 4.8 km/h 91% 2.0 mm 276 W/m2
15:55 14.9 °C 13.4 °C 1001.4 hPa NW 3.2 km/h 11.3 km/h 91% 2.0 mm 487 W/m2
16:00 14.9 °C 13.3 °C 1001.4 hPa West 3.2 km/h 16.1 km/h 90% 2.0 mm 100 W/m2
16:05 14.9 °C 13.3 °C 1001.4 hPa ENE 3.2 km/h 6.4 km/h 90% 2.0 mm 174 W/m2
16:10 15.1 °C 13.5 °C 1001.4 hPa NNW 6.4 km/h 11.3 km/h 90% 1.8 mm 489 W/m2
16:15 15.1 °C 13.5 °C 1001.4 hPa NW 4.7 km/h 6.4 km/h 90% 1.0 mm 116 W/m2
16:20 15 °C 13.2 °C 1001.4 hPa North 3.2 km/h 4.8 km/h 89% 0.2 mm 128 W/m2
16:25 15.1 °C 13.3 °C 1001.4 hPa Calm   8 km/h 89% 0.2 mm 197 W/m2
16:30 15.3 °C 13.5 °C 1001.4 hPa ENE 1.4 km/h 8 km/h 89% 0.0 mm 448 W/m2
16:35 15.4 °C 13.2 °C 1001.4 hPa NW 1.4 km/h 9.7 km/h 87% 0.0 mm 118 W/m2
16:40 15.4 °C 13.1 °C 1001.4 hPa ENE 3.2 km/h 11.3 km/h 86% 0.0 mm 156 W/m2
16:45 15.3 °C 13 °C 1001.4 hPa NE 3.2 km/h 11.3 km/h 86% 0.0 mm 362 W/m2
16:50 15.4 °C 13.1 °C 1001.4 hPa WNW 3.2 km/h 4.8 km/h 86% 0.0 mm 139 W/m2
16:55 15.5 °C 13.2 °C 1001.4 hPa Calm   8 km/h 86% 0.0 mm 357 W/m2
17:00 15.6 °C 13.4 °C 1001.4 hPa Calm   4.8 km/h 87% 0.0 mm 348 W/m2
17:05 15.7 °C 13.4 °C 1001.0 hPa SSW 1.4 km/h 3.2 km/h 86% 0.0 mm 329 W/m2
17:10 15.6 °C 12.9 °C 1001.0 hPa NNE 3.2 km/h 8 km/h 84% 0.0 mm 83 W/m2
17:15 15.5 °C 13 °C 1001.0 hPa Calm   1.6 km/h 85% 0.0 mm 160 W/m2
17:20 15.3 °C 12.8 °C 1001.0 hPa SSW 3.2 km/h 8 km/h 85% 0.0 mm 153 W/m2
17:25 15.3 °C 12.8 °C 1001.0 hPa Calm     85% 0.0 mm 188 W/m2
17:30 15.3 °C 12.6 °C 1001.0 hPa East 1.4 km/h 8 km/h 84% 0.0 mm 69 W/m2
17:35 15.3 °C 12.4 °C 1001.0 hPa ESE 1.4 km/h 8 km/h 83% 0.0 mm 144 W/m2
17:40 15.3 °C 12.4 °C 1001.0 hPa North 3.2 km/h 6.4 km/h 83% 0.0 mm 243 W/m2
17:45 15.3 °C 12.4 °C 1001.0 hPa West 3.2 km/h 8 km/h 83% 0.0 mm 211 W/m2
17:50 15.3 °C 12.2 °C 1001.0 hPa Calm   1.6 km/h 82% 0.0 mm 63 W/m2
17:55 15.3 °C 12.4 °C 1001.0 hPa NNE 1.4 km/h 3.2 km/h 83% 0.0 mm 86 W/m2
18:00 15.1 °C 12.6 °C 1001.0 hPa WNW 1.4 km/h 3.2 km/h 85% 0.0 mm 58 W/m2
18:05 14.8 °C 12.3 °C 1001.0 hPa SE 3.2 km/h 3.2 km/h 85% 0.0 mm 39 W/m2
18:10 14.6 °C 12.3 °C 1001.0 hPa Calm   1.6 km/h 86% 0.0 mm 32 W/m2
18:15 14.3 °C 12.2 °C 1001.0 hPa Calm   3.2 km/h 87% 0.0 mm 62 W/m2
18:20 14.2 °C 12.4 °C 1001.0 hPa Calm   1.6 km/h 89% 0.0 mm 46 W/m2
18:25 14.1 °C 12.3 °C 1001.4 hPa Calm   3.2 km/h 89% 0.0 mm 42 W/m2
18:30 13.9 °C 12.3 °C 1001.4 hPa Calm   1.6 km/h 90% 0.0 mm 40 W/m2
18:35 13.9 °C 12.5 °C 1001.4 hPa Calm   3.2 km/h 91% 0.0 mm 28 W/m2
18:40 13.8 °C 12.4 °C 1001.4 hPa Calm     91% 0.0 mm 37 W/m2
18:45 13.7 °C 12.3 °C 1001.4 hPa West 1.4 km/h 3.2 km/h 91% 0.0 mm 26 W/m2
18:50 13.7 °C 12.3 °C 1001.4 hPa Calm   1.6 km/h 91% 0.0 mm 18 W/m2
18:55 13.6 °C 12.2 °C 1001.4 hPa WNW 1.4 km/h 3.2 km/h 91% 0.0 mm 14 W/m2
19:00 13.5 °C 12.1 °C 1001.4 hPa Calm   4.8 km/h 91% 0.0 mm 12 W/m2
19:05 13.3 °C 12 °C 1001.4 hPa Calm   1.6 km/h 92% 0.0 mm 7 W/m2
19:10 13.2 °C 11.8 °C 1001.4 hPa Calm   4.8 km/h 91% 0.0 mm 5 W/m2
19:15 13 °C 11.6 °C 1001.4 hPa Calm     91% 0.0 mm 0 W/m2
19:25 12.7 °C 11.3 °C 1001.4 hPa Calm     91% 0.0 mm 0 W/m2
19:30 12.6 °C 11.2 °C 1001.4 hPa Calm     91% 0.0 mm 0 W/m2
19:35 12.4 °C 11.1 °C 1001.4 hPa NE 1.4 km/h 3.2 km/h 92% 0.0 mm 0 W/m2
19:40 12.2 °C 10.9 °C 1001.7 hPa North 1.4 km/h 9.7 km/h 92% 0.0 mm 0 W/m2
19:45 12.4 °C 11 °C 1001.7 hPa WSW 3.2 km/h 9.7 km/h 91% 0.0 mm 0 W/m2
19:50 12.5 °C 10.7 °C 1001.7 hPa WNW 4.7 km/h 11.3 km/h 89% 0.0 mm 0 W/m2
19:55 12.7 °C 10.8 °C 1001.7 hPa East 3.2 km/h 3.2 km/h 88% 0.0 mm 0 W/m2
20:00 12.8 °C 10.7 °C 1001.7 hPa WSW 1.4 km/h 9.7 km/h 87% 0.0 mm 0 W/m2
20:05 12.7 °C 10.6 °C 1001.7 hPa Calm   4.8 km/h 87% 0.0 mm 0 W/m2
20:10 12.6 °C 10.7 °C 1001.7 hPa South 3.2 km/h 3.2 km/h 88% 0.0 mm 0 W/m2
20:15 12.4 °C 10.3 °C 1001.7 hPa Calm   3.2 km/h 87% 0.0 mm 0 W/m2
20:20 12.4 °C 10.5 °C 1001.7 hPa Calm   1.6 km/h 88% 0.0 mm 0 W/m2
20:25 12.3 °C 10.5 °C 1002.0 hPa Calm     89% 0.0 mm 0 W/m2
20:30 12 °C 10.2 °C 1002.0 hPa Calm   3.2 km/h 89% 0.0 mm 0 W/m2
20:35 11.8 °C 10.2 °C 1002.0 hPa Calm     90% 0.0 mm 0 W/m2
20:40 11.7 °C 10.1 °C 1002.0 hPa Calm   1.6 km/h 90% 0.0 mm 0 W/m2
20:45 11.4 °C 9.8 °C 1002.0 hPa Calm   1.6 km/h 90% 0.0 mm 0 W/m2
20:50 11.3 °C 9.9 °C 1002.0 hPa SSE 1.4 km/h 1.6 km/h 91% 0.0 mm 0 W/m2
20:55 11.2 °C 9.8 °C 1002.0 hPa SE 1.4 km/h 1.6 km/h 91% 0.0 mm 0 W/m2
21:01 11.2 °C 9.9 °C 1002.0 hPa ENE 1.4 km/h 3.2 km/h 92% 0.0 mm 0 W/m2
21:11 11.1 °C 9.8 °C 1001.7 hPa Calm     92% 0.0 mm 0 W/m2
21:16 10.9 °C 9.7 °C 1001.7 hPa Calm   4.8 km/h 92% 0.0 mm 0 W/m2
21:21 10.8 °C 9.6 °C 1001.7 hPa Calm     92% 0.0 mm 0 W/m2
21:26 10.7 °C 9.6 °C 1001.7 hPa Calm     93% 0.0 mm 0 W/m2
21:31 10.7 °C 9.6 °C 1001.7 hPa West 1.4 km/h 1.6 km/h 93% 0.0 mm 0 W/m2
21:36 10.6 °C 9.5 °C 1001.7 hPa Calm     93% 0.0 mm 0 W/m2
21:41 10.5 °C 9.6 °C 1001.7 hPa West 1.4 km/h 3.2 km/h 94% 0.0 mm 0 W/m2
21:46 10.4 °C 9.5 °C 1001.7 hPa Calm     94% 0.0 mm 0 W/m2
21:51 10.3 °C 9.4 °C 1001.7 hPa Calm   3.2 km/h 94% 0.0 mm 0 W/m2
21:56 10.3 °C 9.4 °C 1001.7 hPa Calm   6.4 km/h 94% 0.0 mm 0 W/m2
22:01 10.3 °C 9.4 °C 1001.7 hPa ESE 3.2 km/h 3.2 km/h 94% 0.0 mm 0 W/m2
22:06 10.2 °C 9.3 °C 1001.7 hPa Calm   6.4 km/h 94% 0.0 mm 0 W/m2
22:11 10.2 °C 9.3 °C 1001.7 hPa ESE 3.2 km/h 4.8 km/h 94% 0.0 mm 0 W/m2
22:16 10.1 °C 9.2 °C 1001.7 hPa ESE 1.4 km/h 3.2 km/h 94% 0.0 mm 0 W/m2
22:21 10.1 °C 9.3 °C 1001.4 hPa Calm   1.6 km/h 95% 0.0 mm 0 W/m2
22:26 10 °C 9.2 °C 1001.4 hPa Calm   3.2 km/h 95% 0.0 mm 0 W/m2
22:31 9.9 °C 9.1 °C 1001.4 hPa ESE 3.2 km/h 3.2 km/h 95% 0.0 mm 0 W/m2
22:36 9.9 °C 9.1 °C 1001.4 hPa ESE 1.4 km/h 4.8 km/h 95% 0.0 mm 0 W/m2
22:41 9.9 °C 9.1 °C 1001.4 hPa Calm   1.6 km/h 95% 0.0 mm 0 W/m2
22:46 9.8 °C 9 °C 1001.4 hPa Calm   1.6 km/h 95% 0.0 mm 0 W/m2
22:51 9.8 °C 9 °C 1001.4 hPa Calm     95% 0.0 mm 0 W/m2
22:56 9.6 °C 8.8 °C 1001.4 hPa Calm     95% 0.0 mm 0 W/m2
23:01 9.5 °C 8.6 °C 1001.0 hPa Calm     94% 0.0 mm 0 W/m2
23:06 9.3 °C 8.5 °C 1001.4 hPa Calm     95% 0.0 mm 0 W/m2
23:11 9.2 °C 8.4 °C 1001.0 hPa Calm   1.6 km/h 95% 0.0 mm 0 W/m2
23:16 9.2 °C 8.4 °C 1001.0 hPa Calm     95% 0.0 mm 0 W/m2
23:21 9.1 °C 8.3 °C 1001.0 hPa Calm   1.6 km/h 95% 0.0 mm 0 W/m2
23:26 9 °C 8.2 °C 1001.0 hPa Calm     95% 0.0 mm 0 W/m2
23:31 8.9 °C 8.1 °C 1000.7 hPa Calm     95% 0.0 mm 0 W/m2
23:36 8.9 °C 8.1 °C 1000.7 hPa Calm     95% 0.0 mm 0 W/m2
23:42 8.9 °C 8.1 °C 1000.7 hPa Calm     95% 0.0 mm 0 W/m2
23:47 8.8 °C 8 °C 1000.7 hPa Calm     95% 0.0 mm 0 W/m2
23:52 8.8 °C 8 °C 1000.7 hPa Calm     95% 0.0 mm 0 W/m2
23:57 8.8 °C 8.2 °C 1000.3 hPa Calm     96% 0.0 mm 0 W/m2
Juneau County Weather
Compliments of Weather Underground - 4 mb